sensor_id;sensor_type;location;lat;lon;timestamp;pressure;altitude;pressure_sealevel;temperature;humidity
9325;BME280;4701;51.566;6.776;2023-04-26T07:03:39;101622.41;;;3.47;90.30
9325;BME280;4701;51.566;6.776;2023-04-26T07:06:42;101620.81;;;3.59;90.50
9325;BME280;4701;51.566;6.776;2023-04-26T07:09:43;101624.44;;;3.72;91.20
9325;BME280;4701;51.566;6.776;2023-04-26T07:12:46;101620.94;;;3.85;91.15
9325;BME280;4701;51.566;6.776;2023-04-26T07:15:47;101628.28;;;3.98;91.39
9325;BME280;4701;51.566;6.776;2023-04-26T07:18:51;101630.16;;;4.10;91.54
9325;BME280;4701;51.566;6.776;2023-04-26T07:21:53;101625.84;;;4.23;91.75
9325;BME280;4701;51.566;6.776;2023-04-26T07:24:55;101626.91;;;4.35;90.99
9325;BME280;4701;51.566;6.776;2023-04-26T07:27:56;101629.03;;;4.46;91.17
9325;BME280;4701;51.566;6.776;2023-04-26T07:31:00;101630.09;;;4.58;90.08
9325;BME280;4701;51.566;6.776;2023-04-26T07:34:03;101634.03;;;4.69;89.76
9325;BME280;4701;51.566;6.776;2023-04-26T07:37:05;101626.34;;;4.79;89.42
9325;BME280;4701;51.566;6.776;2023-04-26T07:40:08;101632.19;;;4.89;88.71
9325;BME280;4701;51.566;6.776;2023-04-26T07:43:10;101634.47;;;4.99;88.10
9325;BME280;4701;51.566;6.776;2023-04-26T07:46:12;101636.75;;;5.08;87.43
9325;BME280;4701;51.566;6.776;2023-04-26T07:49:16;101633.63;;;5.18;87.16
9325;BME280;4701;51.566;6.776;2023-04-26T07:52:17;101635.28;;;5.25;87.05
9325;BME280;4701;51.566;6.776;2023-04-26T07:55:20;101635.91;;;5.34;86.23
9325;BME280;4701;51.566;6.776;2023-04-26T07:58:22;101629.22;;;5.43;85.37
9325;BME280;4701;51.566;6.776;2023-04-26T08:01:24;101634.63;;;5.50;84.63
9325;BME280;4701;51.566;6.776;2023-04-26T08:04:31;101634.59;;;5.56;83.66
9325;BME280;4701;51.566;6.776;2023-04-26T08:07:34;101626.25;;;5.64;83.45
9325;BME280;4701;51.566;6.776;2023-04-26T08:10:36;101630.81;;;5.70;82.63
9325;BME280;4701;51.566;6.776;2023-04-26T08:13:41;101619.97;;;5.77;81.74
9325;BME280;4701;51.566;6.776;2023-04-26T08:16:44;101619.13;;;5.83;80.78
9325;BME280;4701;51.566;6.776;2023-04-26T08:19:47;101625.16;;;5.92;80.44
9325;BME280;4701;51.566;6.776;2023-04-26T08:22:49;101624.50;;;5.96;79.10
9325;BME280;4701;51.566;6.776;2023-04-26T08:25:55;101622.00;;;6.01;78.70
9325;BME280;4701;51.566;6.776;2023-04-26T08:28:57;101623.00;;;6.07;77.83
9325;BME280;4701;51.566;6.776;2023-04-26T08:31:59;101622.38;;;6.12;77.30
9325;BME280;4701;51.566;6.776;2023-04-26T08:35:02;101623.16;;;6.19;77.06
9325;BME280;4701;51.566;6.776;2023-04-26T08:38:05;101624.38;;;6.23;76.25
9325;BME280;4701;51.566;6.776;2023-04-26T08:41:08;101629.97;;;6.28;76.19
9325;BME280;4701;51.566;6.776;2023-04-26T08:44:13;101631.59;;;6.35;75.87
9325;BME280;4701;51.566;6.776;2023-04-26T08:47:17;101630.09;;;6.39;75.80
9325;BME280;4701;51.566;6.776;2023-04-26T08:50:22;101628.19;;;6.46;74.88
9325;BME280;4701;51.566;6.776;2023-04-26T08:53:24;101630.03;;;6.53;74.16
9325;BME280;4701;51.566;6.776;2023-04-26T08:56:26;101620.41;;;6.57;73.78
9325;BME280;4701;51.566;6.776;2023-04-26T08:59:29;101636.66;;;6.63;72.78
9325;BME280;4701;51.566;6.776;2023-04-26T09:02:31;101642.22;;;6.68;72.33
9325;BME280;4701;51.566;6.776;2023-04-26T09:05:38;101631.78;;;6.72;72.17
9325;BME280;4701;51.566;6.776;2023-04-26T09:08:43;101638.41;;;6.76;71.54
9325;BME280;4701;51.566;6.776;2023-04-26T09:11:53;101640.44;;;6.80;71.29
9325;BME280;4701;51.566;6.776;2023-04-26T09:14:55;101638.97;;;6.84;71.05
9325;BME280;4701;51.566;6.776;2023-04-26T09:18:15;101641.84;;;6.90;70.75
9325;BME280;4701;51.566;6.776;2023-04-26T09:21:18;101636.00;;;6.93;70.25
9325;BME280;4701;51.566;6.776;2023-04-26T09:24:20;101636.41;;;6.96;70.22
9325;BME280;4701;51.566;6.776;2023-04-26T09:27:31;101638.63;;;6.99;69.65
9325;BME280;4701;51.566;6.776;2023-04-26T09:30:38;101638.22;;;7.02;69.32
9325;BME280;4701;51.566;6.776;2023-04-26T09:33:57;101645.09;;;7.05;69.27
9325;BME280;4701;51.566;6.776;2023-04-26T09:37:01;101634.59;;;7.08;69.16
9325;BME280;4701;51.566;6.776;2023-04-26T09:40:08;101633.34;;;7.11;68.98
9325;BME280;4701;51.566;6.776;2023-04-26T09:43:19;101620.19;;;7.14;68.84
9325;BME280;4701;51.566;6.776;2023-04-26T09:46:21;101613.25;;;7.18;69.02
9325;BME280;4701;51.566;6.776;2023-04-26T09:49:25;101613.41;;;7.23;69.15
9325;BME280;4701;51.566;6.776;2023-04-26T09:52:28;101610.66;;;7.30;69.21
9325;BME280;4701;51.566;6.776;2023-04-26T09:55:30;101609.97;;;7.35;68.85
9325;BME280;4701;51.566;6.776;2023-04-26T09:58:32;101606.59;;;7.39;67.92
9325;BME280;4701;51.566;6.776;2023-04-26T10:01:34;101602.34;;;7.43;67.77
9325;BME280;4701;51.566;6.776;2023-04-26T10:04:36;101616.09;;;7.48;67.46
9325;BME280;4701;51.566;6.776;2023-04-26T10:07:40;101609.16;;;7.52;67.13
9325;BME280;4701;51.566;6.776;2023-04-26T10:10:42;101611.19;;;7.57;67.11
9325;BME280;4701;51.566;6.776;2023-04-26T10:13:45;101605.31;;;7.60;66.92
9325;BME280;4701;51.566;6.776;2023-04-26T10:16:47;101612.38;;;7.61;66.32
9325;BME280;4701;51.566;6.776;2023-04-26T10:19:53;101605.69;;;7.64;66.38
9325;BME280;4701;51.566;6.776;2023-04-26T10:22:58;101602.50;;;7.67;66.32
9325;BME280;4701;51.566;6.776;2023-04-26T10:26:01;101603.94;;;7.69;66.29
9325;BME280;4701;51.566;6.776;2023-04-26T10:29:02;101598.91;;;7.73;66.10
9325;BME280;4701;51.566;6.776;2023-04-26T10:32:06;101599.25;;;7.76;66.66
9325;BME280;4701;51.566;6.776;2023-04-26T10:35:09;101598.00;;;7.79;65.91
9325;BME280;4701;51.566;6.776;2023-04-26T10:38:13;101603.19;;;7.80;65.59
9325;BME280;4701;51.566;6.776;2023-04-26T10:41:33;101601.66;;;7.84;65.10
9325;BME280;4701;51.566;6.776;2023-04-26T10:44:39;101600.41;;;7.87;64.58
9325;BME280;4701;51.566;6.776;2023-04-26T10:47:41;101595.56;;;7.89;64.75
9325;BME280;4701;51.566;6.776;2023-04-26T10:51:08;101602.19;;;7.93;64.74
9325;BME280;4701;51.566;6.776;2023-04-26T10:54:13;101601.13;;;7.94;64.17
9325;BME280;4701;51.566;6.776;2023-04-26T10:57:15;101593.59;;;7.96;64.27
9325;BME280;4701;51.566;6.776;2023-04-26T11:00:28;101596.91;;;7.98;64.11
9325;BME280;4701;51.566;6.776;2023-04-26T11:03:30;101587.47;;;8.01;64.04
9325;BME280;4701;51.566;6.776;2023-04-26T11:06:46;101585.13;;;8.04;63.22
9325;BME280;4701;51.566;6.776;2023-04-26T11:09:51;101583.59;;;8.08;62.12
9325;BME280;4701;51.566;6.776;2023-04-26T11:12:59;101592.13;;;8.12;62.60
9325;BME280;4701;51.566;6.776;2023-04-26T11:16:02;101594.19;;;8.16;63.02
9325;BME280;4701;51.566;6.776;2023-04-26T11:19:05;101595.34;;;8.20;62.84
9325;BME280;4701;51.566;6.776;2023-04-26T11:22:07;101596.78;;;8.23;62.84
9325;BME280;4701;51.566;6.776;2023-04-26T11:25:12;101584.63;;;8.25;62.25
9325;BME280;4701;51.566;6.776;2023-04-26T11:28:15;101593.38;;;8.27;62.04
9325;BME280;4701;51.566;6.776;2023-04-26T11:31:17;101584.16;;;8.28;62.12
9325;BME280;4701;51.566;6.776;2023-04-26T11:34:20;101585.41;;;8.32;61.75
9325;BME280;4701;51.566;6.776;2023-04-26T11:37:23;101580.31;;;8.36;61.23
9325;BME280;4701;51.566;6.776;2023-04-26T11:40:29;101570.88;;;8.39;61.55
9325;BME280;4701;51.566;6.776;2023-04-26T11:43:34;101578.59;;;8.42;61.40
9325;BME280;4701;51.566;6.776;2023-04-26T11:46:37;101570.78;;;8.45;61.24
9325;BME280;4701;51.566;6.776;2023-04-26T11:49:39;101566.28;;;8.51;61.40
9325;BME280;4701;51.566;6.776;2023-04-26T11:52:41;101582.97;;;8.54;60.97
9325;BME280;4701;51.566;6.776;2023-04-26T11:55:44;101580.63;;;8.58;61.26
9325;BME280;4701;51.566;6.776;2023-04-26T11:58:47;101569.28;;;8.61;60.63
9325;BME280;4701;51.566;6.776;2023-04-26T12:01:49;101578.88;;;8.63;61.17
9325;BME280;4701;51.566;6.776;2023-04-26T12:04:57;101572.72;;;8.68;60.51
9325;BME280;4701;51.566;6.776;2023-04-26T12:08:00;101579.56;;;8.70;61.00
9325;BME280;4701;51.566;6.776;2023-04-26T12:11:03;101584.31;;;8.75;60.73
9325;BME280;4701;51.566;6.776;2023-04-26T12:14:05;101567.75;;;8.77;60.68
9325;BME280;4701;51.566;6.776;2023-04-26T12:17:09;101575.22;;;8.81;61.18
9325;BME280;4701;51.566;6.776;2023-04-26T12:20:11;101577.22;;;8.86;61.23
9325;BME280;4701;51.566;6.776;2023-04-26T12:23:15;101577.59;;;8.89;60.74
9325;BME280;4701;51.566;6.776;2023-04-26T12:26:18;101567.09;;;8.93;60.65
9325;BME280;4701;51.566;6.776;2023-04-26T12:29:20;101571.59;;;8.99;60.72
9325;BME280;4701;51.566;6.776;2023-04-26T12:32:22;101569.56;;;9.06;61.09
9325;BME280;4701;51.566;6.776;2023-04-26T12:35:24;101561.28;;;9.13;60.87
9325;BME280;4701;51.566;6.776;2023-04-26T12:38:26;101561.41;;;9.18;60.53
9325;BME280;4701;51.566;6.776;2023-04-26T12:41:29;101571.56;;;9.22;59.57
9325;BME280;4701;51.566;6.776;2023-04-26T12:44:31;101564.84;;;9.25;59.25
9325;BME280;4701;51.566;6.776;2023-04-26T12:47:33;101570.38;;;9.30;59.70
9325;BME280;4701;51.566;6.776;2023-04-26T12:50:35;101571.56;;;9.34;59.32
9325;BME280;4701;51.566;6.776;2023-04-26T12:53:37;101567.06;;;9.39;60.12
9325;BME280;4701;51.566;6.776;2023-04-26T12:56:40;101557.38;;;9.43;59.06
9325;BME280;4701;51.566;6.776;2023-04-26T12:59:44;101562.91;;;9.48;58.65
9325;BME280;4701;51.566;6.776;2023-04-26T13:02:46;101566.81;;;9.53;58.86
9325;BME280;4701;51.566;6.776;2023-04-26T13:05:48;101573.41;;;9.57;58.73
9325;BME280;4701;51.566;6.776;2023-04-26T13:08:50;101570.78;;;9.62;58.42
9325;BME280;4701;51.566;6.776;2023-04-26T13:11:53;101576.13;;;9.68;58.08
9325;BME280;4701;51.566;6.776;2023-04-26T13:14:55;101570.06;;;9.78;58.17
9325;BME280;4701;51.566;6.776;2023-04-26T13:17:56;101578.69;;;9.86;58.00
9325;BME280;4701;51.566;6.776;2023-04-26T13:20:58;101570.97;;;9.95;57.49
9325;BME280;4701;51.566;6.776;2023-04-26T13:24:00;101560.47;;;10.04;57.48
9325;BME280;4701;51.566;6.776;2023-04-26T13:27:04;101559.03;;;10.13;57.93
9325;BME280;4701;51.566;6.776;2023-04-26T13:30:07;101573.38;;;10.20;58.02
9325;BME280;4701;51.566;6.776;2023-04-26T13:33:09;101552.13;;;10.22;56.77
9325;BME280;4701;51.566;6.776;2023-04-26T13:36:11;101555.22;;;10.26;55.96
9325;BME280;4701;51.566;6.776;2023-04-26T13:39:14;101556.88;;;10.27;55.42
9325;BME280;4701;51.566;6.776;2023-04-26T13:42:17;101552.56;;;10.31;56.17
9325;BME280;4701;51.566;6.776;2023-04-26T13:45:20;101556.38;;;10.30;55.57
9325;BME280;4701;51.566;6.776;2023-04-26T13:48:21;101560.19;;;10.29;55.79
9325;BME280;4701;51.566;6.776;2023-04-26T13:51:23;101558.03;;;10.31;56.28
9325;BME280;4701;51.566;6.776;2023-04-26T13:54:26;101558.28;;;10.29;55.23
9325;BME280;4701;51.566;6.776;2023-04-26T13:57:29;101561.25;;;10.28;54.88
9325;BME280;4701;51.566;6.776;2023-04-26T14:00:31;101556.63;;;10.28;54.41
9325;BME280;4701;51.566;6.776;2023-04-26T14:03:33;101556.63;;;10.28;55.12
9325;BME280;4701;51.566;6.776;2023-04-26T14:06:35;101560.19;;;10.29;54.73
9325;BME280;4701;51.566;6.776;2023-04-26T14:09:36;101559.34;;;10.28;54.22
9325;BME280;4701;51.566;6.776;2023-04-26T14:12:40;101554.75;;;10.29;54.65
9325;BME280;4701;51.566;6.776;2023-04-26T14:15:41;101566.19;;;10.31;54.33
9325;BME280;4701;51.566;6.776;2023-04-26T14:18:43;101558.59;;;10.33;54.51
9325;BME280;4701;51.566;6.776;2023-04-26T14:21:45;101566.53;;;10.34;53.74
9325;BME280;4701;51.566;6.776;2023-04-26T14:24:47;101562.75;;;10.35;53.45
9325;BME280;4701;51.566;6.776;2023-04-26T14:27:51;101558.13;;;10.36;53.13
9325;BME280;4701;51.566;6.776;2023-04-26T14:30:53;101553.75;;;10.35;52.04
9325;BME280;4701;51.566;6.776;2023-04-26T14:33:55;101561.94;;;10.35;52.52
9325;BME280;4701;51.566;6.776;2023-04-26T14:36:56;101559.19;;;10.35;52.99
9325;BME280;4701;51.566;6.776;2023-04-26T14:40:01;101554.34;;;10.37;53.63
9325;BME280;4701;51.566;6.776;2023-04-26T14:43:04;101550.28;;;10.39;54.07
9325;BME280;4701;51.566;6.776;2023-04-26T14:46:06;101545.41;;;10.41;53.84
9325;BME280;4701;51.566;6.776;2023-04-26T14:49:08;101541.38;;;10.44;54.44
9325;BME280;4701;51.566;6.776;2023-04-26T14:52:10;101547.97;;;10.48;53.46
9325;BME280;4701;51.566;6.776;2023-04-26T14:55:16;101532.22;;;10.50;53.40
9325;BME280;4701;51.566;6.776;2023-04-26T14:58:19;101545.34;;;10.53;54.01
9325;BME280;4701;51.566;6.776;2023-04-26T15:01:21;101545.91;;;10.55;53.91
9325;BME280;4701;51.566;6.776;2023-04-26T15:04:22;101546.50;;;10.57;53.66
9325;BME280;4701;51.566;6.776;2023-04-26T15:07:24;101555.00;;;10.60;54.14
9325;BME280;4701;51.566;6.776;2023-04-26T15:10:26;101545.53;;;10.63;53.46
9325;BME280;4701;51.566;6.776;2023-04-26T15:13:29;101546.09;;;10.65;53.18
9325;BME280;4701;51.566;6.776;2023-04-26T15:16:31;101536.84;;;10.66;53.22
9325;BME280;4701;51.566;6.776;2023-04-26T15:19:32;101542.28;;;10.66;51.97
9325;BME280;4701;51.566;6.776;2023-04-26T15:22:34;101543.69;;;10.69;52.93
9325;BME280;4701;51.566;6.776;2023-04-26T15:25:36;101542.88;;;10.68;52.99
9325;BME280;4701;51.566;6.776;2023-04-26T15:28:39;101537.19;;;10.70;53.32
9325;BME280;4701;51.566;6.776;2023-04-26T15:31:41;101533.09;;;10.72;54.28
9325;BME280;4701;51.566;6.776;2023-04-26T15:34:43;101531.22;;;10.73;54.12
9325;BME280;4701;51.566;6.776;2023-04-26T15:37:45;101538.06;;;10.75;54.17
9325;BME280;4701;51.566;6.776;2023-04-26T15:40:47;101536.19;;;10.76;54.19
9325;BME280;4701;51.566;6.776;2023-04-26T15:43:53;101540.81;;;10.75;54.31
9325;BME280;4701;51.566;6.776;2023-04-26T15:46:55;101539.97;;;10.75;53.89
9325;BME280;4701;51.566;6.776;2023-04-26T15:50:00;101536.66;;;10.73;53.01
9325;BME280;4701;51.566;6.776;2023-04-26T15:53:03;101535.28;;;10.70;53.27
9325;BME280;4701;51.566;6.776;2023-04-26T15:56:12;101538.50;;;10.67;52.29
9325;BME280;4701;51.566;6.776;2023-04-26T15:59:16;101534.63;;;10.63;51.88
9325;BME280;4701;51.566;6.776;2023-04-26T16:02:18;101539.72;;;10.59;51.79
9325;BME280;4701;51.566;6.776;2023-04-26T16:05:19;101539.38;;;10.56;51.98
9325;BME280;4701;51.566;6.776;2023-04-26T16:08:21;101543.44;;;10.53;53.37
9325;BME280;4701;51.566;6.776;2023-04-26T16:11:23;101543.09;;;10.50;53.04
9325;BME280;4701;51.566;6.776;2023-04-26T16:14:27;101543.03;;;10.45;51.93
9325;BME280;4701;51.566;6.776;2023-04-26T16:17:28;101541.84;;;10.41;51.57
9325;BME280;4701;51.566;6.776;2023-04-26T16:20:30;101530.88;;;10.36;52.26
9325;BME280;4701;51.566;6.776;2023-04-26T16:23:32;101536.81;;;10.33;52.32
9325;BME280;4701;51.566;6.776;2023-04-26T16:26:34;101536.22;;;10.31;53.32
9325;BME280;4701;51.566;6.776;2023-04-26T16:29:37;101527.72;;;10.27;53.76
9325;BME280;4701;51.566;6.776;2023-04-26T16:32:39;101535.31;;;10.25;53.37
9325;BME280;4701;51.566;6.776;2023-04-26T16:35:41;101523.00;;;10.22;53.81
9325;BME280;4701;51.566;6.776;2023-04-26T16:38:43;101525.16;;;10.20;53.51
9325;BME280;4701;51.566;6.776;2023-04-26T16:41:45;101519.13;;;10.18;52.97
9325;BME280;4701;51.566;6.776;2023-04-26T16:44:48;101524.78;;;10.17;53.83
9325;BME280;4701;51.566;6.776;2023-04-26T16:47:50;101526.91;;;10.15;54.04
9325;BME280;4701;51.566;6.776;2023-04-26T16:50:51;101523.59;;;10.13;53.66
9325;BME280;4701;51.566;6.776;2023-04-26T16:53:53;101527.66;;;10.10;53.05
9325;BME280;4701;51.566;6.776;2023-04-26T16:56:55;101529.56;;;10.10;53.98
9325;BME280;4701;51.566;6.776;2023-04-26T16:59:59;101534.66;;;10.06;53.50
9325;BME280;4701;51.566;6.776;2023-04-26T17:03:01;101529.72;;;10.03;53.31
9325;BME280;4701;51.566;6.776;2023-04-26T17:06:03;101536.22;;;10.02;54.04
9325;BME280;4701;51.566;6.776;2023-04-26T17:09:06;101539.44;;;9.99;53.11
9325;BME280;4701;51.566;6.776;2023-04-26T17:12:08;101544.28;;;9.97;53.76
9325;BME280;4701;51.566;6.776;2023-04-26T17:15:11;101542.91;;;9.95;53.71
9325;BME280;4701;51.566;6.776;2023-04-26T17:18:13;101542.06;;;9.94;53.81
9325;BME280;4701;51.566;6.776;2023-04-26T17:21:15;101542.31;;;9.93;54.37
9325;BME280;4701;51.566;6.776;2023-04-26T17:24:17;101545.28;;;9.91;54.63
9325;BME280;4701;51.566;6.776;2023-04-26T17:27:18;101542.78;;;9.90;55.03
9325;BME280;4701;51.566;6.776;2023-04-26T17:30:23;101534.28;;;9.86;54.57
9325;BME280;4701;51.566;6.776;2023-04-26T17:33:24;101539.75;;;9.86;54.66
9325;BME280;4701;51.566;6.776;2023-04-26T17:36:26;101542.94;;;9.83;55.05
9325;BME280;4701;51.566;6.776;2023-04-26T17:39:28;101533.09;;;9.82;55.42
9325;BME280;4701;51.566;6.776;2023-04-26T17:42:30;101536.06;;;9.80;55.22
9325;BME280;4701;51.566;6.776;2023-04-26T17:45:33;101537.41;;;9.78;55.31
9325;BME280;4701;51.566;6.776;2023-04-26T17:48:35;101537.88;;;9.75;55.64
9325;BME280;4701;51.566;6.776;2023-04-26T17:51:37;101540.84;;;9.73;55.27
9325;BME280;4701;51.566;6.776;2023-04-26T17:54:39;101542.97;;;9.71;55.47
9325;BME280;4701;51.566;6.776;2023-04-26T17:57:41;101544.28;;;9.69;55.52
9325;BME280;4701;51.566;6.776;2023-04-26T18:00:44;101547.25;;;9.67;55.85
9325;BME280;4701;51.566;6.776;2023-04-26T18:03:46;101545.81;;;9.65;55.23
9325;BME280;4701;51.566;6.776;2023-04-26T18:06:48;101549.84;;;9.62;55.58
9325;BME280;4701;51.566;6.776;2023-04-26T18:09:50;101553.91;;;9.60;55.41
9325;BME280;4701;51.566;6.776;2023-04-26T18:12:52;101562.31;;;9.58;56.10
9325;BME280;4701;51.566;6.776;2023-04-26T18:15:55;101560.88;;;9.56;55.75
9325;BME280;4701;51.566;6.776;2023-04-26T18:18:57;101571.16;;;9.54;56.21
9325;BME280;4701;51.566;6.776;2023-04-26T18:21:59;101566.22;;;9.51;56.46
9325;BME280;4701;51.566;6.776;2023-04-26T18:25:01;101570.00;;;9.49;56.65
9325;BME280;4701;51.566;6.776;2023-04-26T18:28:03;101568.81;;;9.45;57.15
9325;BME280;4701;51.566;6.776;2023-04-26T18:31:06;101572.88;;;9.43;56.75
9325;BME280;4701;51.566;6.776;2023-04-26T18:34:08;101575.00;;;9.41;57.01
9325;BME280;4701;51.566;6.776;2023-04-26T18:37:10;101578.19;;;9.38;57.40
9325;BME280;4701;51.566;6.776;2023-04-26T18:40:12;101581.13;;;9.36;57.43
9325;BME280;4701;51.566;6.776;2023-04-26T18:43:14;101577.00;;;9.34;57.94
9325;BME280;4701;51.566;6.776;2023-04-26T18:46:17;101580.78;;;9.33;58.38
9325;BME280;4701;51.566;6.776;2023-04-26T18:49:20;101573.94;;;9.30;58.55
9325;BME280;4701;51.566;6.776;2023-04-26T18:52:22;101571.66;;;9.27;58.59
9325;BME280;4701;51.566;6.776;2023-04-26T18:55:24;101580.94;;;9.26;58.98
9325;BME280;4701;51.566;6.776;2023-04-26T18:58:26;101580.31;;;9.24;59.12
9325;BME280;4701;51.566;6.776;2023-04-26T19:01:29;101585.16;;;9.22;58.60
9325;BME280;4701;51.566;6.776;2023-04-26T19:04:31;101575.00;;;9.18;59.58
9325;BME280;4701;51.566;6.776;2023-04-26T19:07:33;101588.63;;;9.18;59.56
9325;BME280;4701;51.566;6.776;2023-04-26T19:10:35;101589.91;;;9.15;59.58
9325;BME280;4701;51.566;6.776;2023-04-26T19:13:37;101593.91;;;9.13;59.71
9325;BME280;4701;51.566;6.776;2023-04-26T19:16:41;101595.25;;;9.10;60.09
9325;BME280;4701;51.566;6.776;2023-04-26T19:19:43;101600.09;;;9.08;60.35
9325;BME280;4701;51.566;6.776;2023-04-26T19:23:03;101604.09;;;9.05;60.03
9325;BME280;4701;51.566;6.776;2023-04-26T19:26:07;101595.56;;;9.02;60.59
9325;BME280;4701;51.566;6.776;2023-04-26T19:29:11;101603.97;;;9.00;60.95
9325;BME280;4701;51.566;6.776;2023-04-26T19:32:14;101606.09;;;8.98;60.36
9325;BME280;4701;51.566;6.776;2023-04-26T19:35:18;101603.84;;;8.95;61.17
9325;BME280;4701;51.566;6.776;2023-04-26T19:38:20;101602.44;;;8.93;61.40
9325;BME280;4701;51.566;6.776;2023-04-26T19:41:22;101610.00;;;8.91;61.79
9325;BME280;4701;51.566;6.776;2023-04-26T19:44:24;101609.16;;;8.90;61.87
9325;BME280;4701;51.566;6.776;2023-04-26T19:47:27;101610.44;;;8.88;61.39
9325;BME280;4701;51.566;6.776;2023-04-26T19:50:29;101614.47;;;8.85;62.30
9325;BME280;4701;51.566;6.776;2023-04-26T19:53:31;101612.81;;;8.84;61.99
9325;BME280;4701;51.566;6.776;2023-04-26T19:56:34;101623.09;;;8.82;62.03
9325;BME280;4701;51.566;6.776;2023-04-26T19:59:38;101626.03;;;8.81;62.19
9325;BME280;4701;51.566;6.776;2023-04-26T20:02:44;101625.44;;;8.79;62.07
9325;BME280;4701;51.566;6.776;2023-04-26T20:05:46;101628.38;;;8.77;62.55
9325;BME280;4701;51.566;6.776;2023-04-26T20:08:48;101629.47;;;8.76;62.43
9325;BME280;4701;51.566;6.776;2023-04-26T20:11:50;101634.31;;;8.74;63.29
9325;BME280;4701;51.566;6.776;2023-04-26T20:14:52;101633.47;;;8.73;63.06
9325;BME280;4701;51.566;6.776;2023-04-26T20:17:55;101632.88;;;8.71;63.20
9325;BME280;4701;51.566;6.776;2023-04-26T20:20:57;101638.53;;;8.70;63.69
9325;BME280;4701;51.566;6.776;2023-04-26T20:23:59;101645.03;;;8.69;63.67
9325;BME280;4701;51.566;6.776;2023-04-26T20:27:02;101651.78;;;8.66;63.14
9325;BME280;4701;51.566;6.776;2023-04-26T20:30:05;101646.56;;;8.65;63.47
9325;BME280;4701;51.566;6.776;2023-04-26T20:33:08;101641.38;;;8.63;64.15
9325;BME280;4701;51.566;6.776;2023-04-26T20:36:10;101639.09;;;8.60;63.64
9325;BME280;4701;51.566;6.776;2023-04-26T20:39:12;101640.16;;;8.59;64.15
9325;BME280;4701;51.566;6.776;2023-04-26T20:42:14;101641.47;;;8.57;64.47
9325;BME280;4701;51.566;6.776;2023-04-26T20:45:16;101640.88;;;8.55;63.51
9325;BME280;4701;51.566;6.776;2023-04-26T20:48:19;101638.38;;;8.53;64.25
9325;BME280;4701;51.566;6.776;2023-04-26T20:51:21;101638.84;;;8.50;64.09
9325;BME280;4701;51.566;6.776;2023-04-26T20:54:23;101643.69;;;8.48;63.98
9325;BME280;4701;51.566;6.776;2023-04-26T20:57:25;101636.81;;;8.46;64.23
9325;BME280;4701;51.566;6.776;2023-04-26T21:00:27;101637.88;;;8.45;64.30
